Time;durP1;ratioP1;P1;durP2;ratioP2;P2;SDS_P1;SDS_P2;PMS_P1;PMS_P2;Temp;Humidity;BMP_temperature;BMP_pressure;BME280_temperature;BME280_humidity;BME280_pressure;Samples;Min_cycle;Max_cycle;Signal;HPM_P1;HPM_P2
2022/05/15 00:02:40;;;;;;;15.93;5.38;;;12.50;98.70;;;;;;4990723;28;20241;-94
2022/05/15 00:05:12;;;;;;;18.90;7.55;;;12.50;99.20;;;;;;4979607;28;20014;-94
2022/05/15 00:07:38;;;;;;;24.70;9.13;;;12.50;99.60;;;;;;4977323;28;20023;-94
2022/05/15 00:10:05;;;;;;;27.25;12.20;;;12.40;99.90;;;;;;4977199;28;20026;-93
2022/05/15 00:12:32;;;;;;;53.03;18.05;;;12.30;99.90;;;;;;4977895;28;20128;-93
2022/05/15 00:14:58;;;;;;;25.13;11.38;;;12.20;99.90;;;;;;4974038;28;20062;-94
2022/05/15 00:17:25;;;;;;;19.55;8.63;;;12.20;99.90;;;;;;4992021;28;20058;-94
2022/05/15 00:19:51;;;;;;;20.17;7.97;;;12.10;99.90;;;;;;4998111;28;20034;-94
2022/05/15 00:22:17;;;;;;;16.30;7.53;;;12.10;99.90;;;;;;5001123;28;20086;-93
2022/05/15 00:24:44;;;;;;;19.05;6.72;;;12.10;99.90;;;;;;4975021;28;20030;-93
2022/05/15 00:27:13;;;;;;;19.63;7.13;;;12.10;99.90;;;;;;4972540;28;20033;-94
2022/05/15 00:29:39;;;;;;;17.48;6.38;;;12.20;99.90;;;;;;4989191;28;20030;-94
2022/05/15 00:32:09;;;;;;;18.15;6.25;;;12.20;99.90;;;;;;4977761;28;20102;-94
2022/05/15 00:34:35;;;;;;;18.40;8.32;;;12.20;99.90;;;;;;4994460;28;20034;-94
2022/05/15 00:37:01;;;;;;;16.08;6.55;;;12.20;99.90;;;;;;4997333;28;20057;-93
2022/05/15 00:39:30;;;;;;;15.88;6.30;;;12.20;99.90;;;;;;4995319;28;20062;-94
2022/05/15 00:41:56;;;;;;;13.02;5.47;;;12.30;99.90;;;;;;5013410;28;20026;-94
2022/05/15 00:44:23;;;;;;;22.45;9.75;;;12.30;99.90;;;;;;4997195;28;20026;-95
2022/05/15 00:46:49;;;;;;;19.20;8.10;;;12.30;99.90;;;;;;5013973;28;20026;-94
2022/05/15 00:49:15;;;;;;;35.60;16.35;;;12.30;99.90;;;;;;4997369;28;20033;-95
2022/05/15 00:51:56;;;;;;;29.55;18.10;;;12.30;99.90;;;;;;5014165;28;20030;-95
2022/05/15 00:54:37;;;;;;;24.80;14.55;;;12.20;99.90;;;;;;4996561;28;20042;-94
2022/05/15 00:57:26;;;;;;;23.98;12.52;;;12.20;99.90;;;;;;4996732;28;20042;-95
2022/05/15 01:00:04;;;;;;;14.52;9.10;;;12.10;99.90;;;;;;4992465;28;20088;-92
2022/05/15 01:02:36;;;;;;;20.05;8.43;;;12.10;99.90;;;;;;5007636;28;20050;-94
2022/05/15 01:05:04;;;;;;;15.27;7.90;;;12.10;99.90;;;;;;5007808;28;20026;-94
2022/05/15 01:07:32;;;;;;;16.70;8.20;;;12.00;99.90;;;;;;5008083;28;20034;-94
2022/05/15 01:10:00;;;;;;;20.27;8.95;;;12.00;99.90;;;;;;5007715;28;20030;-94
2022/05/15 01:12:27;;;;;;;19.98;9.10;;;12.10;99.90;;;;;;5007252;28;20027;-94
2022/05/15 01:14:54;;;;;;;22.35;9.40;;;12.10;99.90;;;;;;5006408;28;20037;-93
2022/05/15 01:17:20;;;;;;;21.73;8.55;;;12.10;99.90;;;;;;5007141;28;20042;-93
2022/05/15 01:19:45;;;;;;;23.17;9.68;;;12.00;99.90;;;;;;5007858;28;20031;-94
2022/05/15 01:22:15;;;;;;;18.85;8.85;;;12.10;99.90;;;;;;4990890;28;20101;-93
2022/05/15 01:24:42;;;;;;;;;;;12.10;99.90;;;;;;5010453;28;20097;-94
2022/05/15 01:27:12;;;;;;;17.15;8.85;;;12.10;99.90;;;;;;5007940;28;20024;-93
2022/05/15 01:29:42;;;;;;;16.35;7.95;;;12.10;99.90;;;;;;4995975;28;20041;-93
2022/05/15 01:32:11;;;;;;;21.43;9.57;;;12.10;99.90;;;;;;4988646;28;20041;-93
2022/05/15 01:34:37;;;;;;;19.33;8.27;;;12.10;99.90;;;;;;4985057;28;20126;-91
2022/05/15 01:37:03;;;;;;;16.90;7.93;;;12.00;99.90;;;;;;4993439;28;20042;-94
2022/05/15 01:39:30;;;;;;;19.45;8.27;;;12.10;99.90;;;;;;4993029;28;20117;-94
2022/05/15 01:41:59;;;;;;;19.95;8.10;;;12.10;99.90;;;;;;5011791;28;20097;-94
2022/05/15 01:44:26;;;;;;;19.85;7.38;;;12.10;99.90;;;;;;4994429;28;20153;-94
2022/05/15 01:46:52;;;;;;;20.38;9.05;;;12.10;99.90;;;;;;5009231;28;20034;-94
2022/05/15 01:49:19;;;;;;;19.13;8.68;;;12.10;99.90;;;;;;4992713;28;20101;-95
2022/05/15 01:51:45;;;;;;;24.02;10.43;;;12.10;99.90;;;;;;4986094;28;20034;-93
2022/05/15 01:54:11;;;;;;;24.92;8.45;;;12.00;99.90;;;;;;4987731;28;20169;-93
2022/05/15 01:56:37;;;;;;;21.70;8.52;;;11.90;99.90;;;;;;4988603;28;20042;-93
2022/05/15 01:59:05;;;;;;;22.85;8.57;;;11.90;99.90;;;;;;4987420;28;20026;-93
2022/05/15 02:01:31;;;;;;;21.75;8.07;;;11.90;99.90;;;;;;4988546;28;20022;-94
2022/05/15 02:03:56;;;;;;;24.40;8.27;;;11.90;99.90;;;;;;4989999;28;20026;-93
2022/05/15 02:06:22;;;;;;;20.23;7.78;;;11.90;99.90;;;;;;4986781;28;20030;-94
2022/05/15 02:08:48;;;;;;;15.68;8.15;;;11.90;99.90;;;;;;4988078;28;20034;-95
2022/05/15 02:11:14;;;;;;;14.63;8.73;;;11.90;99.90;;;;;;4997582;28;20049;-93
2022/05/15 02:13:41;;;;;;;27.10;9.30;;;12.00;99.90;;;;;;5010013;28;20062;-94
2022/05/15 02:16:07;;;;;;;19.02;8.40;;;11.90;99.90;;;;;;4986927;28;20046;-93
2022/05/15 02:18:33;;;;;;;23.23;8.98;;;11.90;99.90;;;;;;4987196;28;20041;-93
2022/05/15 02:20:59;;;;;;;20.08;7.35;;;11.90;99.90;;;;;;4998069;28;20026;-94
2022/05/15 02:23:26;;;;;;;16.77;6.65;;;11.90;99.90;;;;;;4981503;28;20026;-94
2022/05/15 02:25:52;;;;;;;13.48;6.85;;;11.90;99.90;;;;;;4984340;28;20050;-95
2022/05/15 02:28:19;;;;;;;19.33;7.18;;;11.90;99.90;;;;;;5003560;28;20047;-95
2022/05/15 02:30:47;;;;;;;20.95;7.50;;;11.90;99.90;;;;;;5003940;28;20018;-94
2022/05/15 02:33:13;;;;;;;18.30;7.30;;;11.90;99.90;;;;;;5005662;28;20065;-95
2022/05/15 02:35:39;;;;;;;13.40;7.43;;;11.90;99.90;;;;;;4988561;28;20045;-94
2022/05/15 02:38:05;;;;;;;16.70;7.13;;;11.80;99.90;;;;;;5004999;28;20030;-95
2022/05/15 02:40:31;;;;;;;15.25;6.97;;;11.80;99.90;;;;;;5006363;28;20118;-94
2022/05/15 02:42:57;;;;;;;16.45;7.43;;;11.80;99.90;;;;;;4987991;28;20034;-94
2022/05/15 02:45:24;;;;;;;19.88;9.43;;;11.80;99.90;;;;;;4988184;28;20027;-94
2022/05/15 02:47:50;;;;;;;20.92;8.90;;;11.80;99.90;;;;;;5006970;28;20026;-93
2022/05/15 02:53:01;;;;;;;16.25;7.13;;;11.80;99.90;;;;;;5006005;28;20110;-95
2022/05/15 02:55:27;;;;;;;22.10;8.18;;;11.70;99.90;;;;;;5005031;28;20094;-94
2022/05/15 02:57:54;;;;;;;22.20;7.45;;;11.70;99.90;;;;;;5006308;28;20046;-94
2022/05/15 03:00:23;;;;;;;19.85;6.88;;;11.70;99.90;;;;;;4989550;28;20034;-94
2022/05/15 03:02:49;;;;;;;15.75;6.82;;;11.80;99.90;;;;;;4998282;28;20081;-93
2022/05/15 03:05:17;;;;;;;13.43;6.28;;;11.80;99.90;;;;;;4955838;28;20035;-93
2022/05/15 03:07:43;;;;;;;23.33;8.20;;;11.80;99.90;;;;;;4985167;28;20034;-92
2022/05/15 03:10:11;;;;;;;23.67;7.30;;;11.80;99.90;;;;;;4975591;28;20019;-92
2022/05/15 03:12:37;;;;;;;13.57;5.88;;;11.70;99.90;;;;;;4978177;28;20059;-92
2022/05/15 03:15:05;;;;;;;14.48;5.80;;;11.70;99.90;;;;;;4975911;28;20030;-94
2022/05/15 03:17:32;;;;;;;15.98;5.22;;;11.70;99.90;;;;;;4991990;28;20484;-93
2022/05/15 03:19:58;;;;;;;16.88;6.32;;;11.70;99.90;;;;;;4973963;28;20030;-93
2022/05/15 03:22:24;;;;;;;20.48;6.25;;;11.80;99.90;;;;;;4976308;28;20026;-94
2022/05/15 03:24:50;;;;;;;14.85;5.65;;;11.90;99.90;;;;;;4974854;28;20034;-93
2022/05/15 03:27:16;;;;;;;14.07;5.10;;;12.00;99.90;;;;;;4988562;28;20038;-94
2022/05/15 03:29:42;;;;;;;18.42;6.50;;;12.10;99.90;;;;;;4955588;28;20035;-92
2022/05/15 03:32:08;;;;;;;24.27;8.88;;;12.20;99.90;;;;;;4969774;28;20058;-94
2022/05/15 03:34:34;;;;;;;21.88;7.28;;;12.30;99.90;;;;;;4967140;28;20029;-93
2022/05/15 03:37:00;;;;;;;18.15;5.93;;;12.40;99.90;;;;;;4986068;28;20106;-94
2022/05/15 03:39:26;;;;;;;19.73;6.80;;;12.40;99.90;;;;;;5003785;28;20487;-95
2022/05/15 03:41:52;;;;;;;21.92;7.65;;;12.50;99.90;;;;;;4983838;28;20092;-94
2022/05/15 03:44:19;;;;;;;20.80;7.65;;;12.50;99.90;;;;;;4988841;28;20085;-93
2022/05/15 03:46:45;;;;;;;20.48;7.25;;;12.60;99.90;;;;;;4985767;28;20029;-94
2022/05/15 03:49:13;;;;;;;15.63;6.05;;;12.60;99.90;;;;;;4999483;28;20029;-94
2022/05/15 03:51:39;;;;;;;21.38;8.70;;;12.60;99.90;;;;;;4991066;28;20037;-94
2022/05/15 03:54:06;;;;;;;24.15;7.70;;;12.60;99.90;;;;;;4997471;28;20112;-94
2022/05/15 03:56:50;;;;;;;23.50;7.93;;;12.70;99.90;;;;;;5018618;28;20046;-96
2022/05/15 03:59:19;;;;;;;21.85;7.93;;;12.70;99.90;;;;;;5015654;28;20030;-95
2022/05/15 04:01:46;;;;;;;20.73;8.15;;;12.70;99.90;;;;;;5020077;28;20018;-95
2022/05/15 04:04:12;;;;;;;18.90;7.03;;;12.70;99.90;;;;;;5017545;28;20030;-93
2022/05/15 04:06:40;;;;;;;21.23;7.20;;;12.70;99.90;;;;;;5020697;28;20035;-95
2022/05/15 04:09:08;;;;;;;16.67;6.28;;;12.70;99.90;;;;;;5004347;28;20014;-95
2022/05/15 04:14:31;;;;;;;7.78;3.20;;;12.70;99.90;;;;;;5936954;23;20062;-94
2022/05/15 04:16:59;;;;;;;11.50;3.78;;;12.70;99.90;;;;;;5015986;28;20097;-93
2022/05/15 04:19:25;;;;;;;12.05;3.90;;;12.70;99.90;;;;;;5023334;28;20494;-94
2022/05/15 04:21:51;;;;;;;16.40;5.97;;;12.70;99.90;;;;;;5011777;28;20021;-92
2022/05/15 04:24:18;;;;;;;22.58;7.47;;;12.70;99.90;;;;;;5032760;28;20127;-92
2022/05/15 04:26:46;;;;;;;16.98;6.95;;;12.60;99.90;;;;;;5015552;28;20057;-93
2022/05/15 04:29:13;;;;;;;15.95;6.22;;;12.50;99.90;;;;;;5030738;28;20167;-93
2022/05/15 04:31:39;;;;;;;13.65;5.85;;;12.50;99.90;;;;;;5012101;28;20407;-93
2022/05/15 04:34:05;;;;;;;19.13;6.65;;;12.50;99.90;;;;;;5007696;28;20033;-92
2022/05/15 04:36:33;;;;;;;24.77;7.68;;;12.50;99.90;;;;;;5026023;28;20038;-94
2022/05/15 04:38:59;;;;;;;14.85;4.85;;;12.60;99.90;;;;;;5009636;28;20029;-93
2022/05/15 04:41:26;;;;;;;9.30;4.05;;;12.60;99.90;;;;;;5007182;28;20030;-95
2022/05/15 04:43:52;;;;;;;13.23;5.65;;;12.60;99.90;;;;;;5016598;28;20022;-96
2022/05/15 04:46:18;;;;;;;13.00;5.38;;;12.70;99.90;;;;;;5017734;28;20059;-94
2022/05/15 04:48:47;;;;;;;10.45;4.60;;;12.70;99.90;;;;;;5027882;28;20064;-95
2022/05/15 04:51:16;;;;;;;11.45;4.43;;;12.70;99.90;;;;;;5015602;28;20034;-96
2022/05/15 04:53:42;;;;;;;11.55;3.90;;;12.60;99.90;;;;;;5016921;28;20068;-96
2022/05/15 04:56:09;;;;;;;9.63;3.78;;;12.60;99.90;;;;;;5003569;28;20029;-94
2022/05/15 04:58:35;;;;;;;9.10;4.57;;;12.60;99.90;;;;;;5020791;28;20038;-95
2022/05/15 05:01:00;;;;;;;9.73;3.70;;;12.60;99.90;;;;;;5038848;28;20074;-95
2022/05/15 05:03:29;;;;;;;7.03;3.63;;;12.70;99.90;;;;;;5039046;28;20022;-95
2022/05/15 05:05:55;;;;;;;9.10;4.30;;;12.70;99.90;;;;;;5022996;28;20032;-95
2022/05/15 05:08:30;;;;;;;7.68;4.10;;;12.70;99.90;;;;;;5021871;28;20050;-96
2022/05/15 05:11:23;;;;;;;9.75;2.95;;;12.70;99.90;;;;;;5021563;28;20046;-95
2022/05/15 05:14:07;;;;;;;8.18;3.80;;;12.60;99.90;;;;;;5038461;28;20065;-94
2022/05/15 05:16:33;;;;;;;9.50;3.28;;;12.60;99.90;;;;;;5017281;28;20053;-95
2022/05/15 05:19:01;;;;;;;6.95;3.38;;;12.70;99.90;;;;;;5029682;28;20072;-94
2022/05/15 05:21:27;;;;;;;8.88;3.05;;;12.70;99.90;;;;;;5014725;28;20038;-94
2022/05/15 05:23:53;;;;;;;10.23;2.85;;;12.70;99.90;;;;;;5016356;28;20054;-94
2022/05/15 05:26:21;;;;;;;6.53;2.80;;;12.70;99.90;;;;;;5028755;28;20022;-95
2022/05/15 05:28:47;;;;;;;6.63;3.13;;;12.70;99.90;;;;;;4994242;28;20101;-94
2022/05/15 05:31:14;;;;;;;7.50;3.33;;;12.60;99.90;;;;;;4995051;28;20029;-94
2022/05/15 05:33:40;;;;;;;7.75;3.40;;;12.60;99.90;;;;;;5011605;28;20030;-95
2022/05/15 05:36:07;;;;;;;10.45;3.30;;;12.60;99.90;;;;;;5016091;28;20042;-95
2022/05/15 05:38:34;;;;;;;8.55;3.28;;;12.70;99.90;;;;;;5017354;28;20052;-96
2022/05/15 05:41:07;;;;;;;11.55;4.07;;;12.70;99.90;;;;;;5014711;28;20028;-94
2022/05/15 05:43:36;;;;;;;13.27;5.60;;;12.70;99.90;;;;;;4986152;28;20037;-94
2022/05/15 05:46:41;;;;;;;14.55;5.43;;;12.70;99.90;;;;;;5035458;28;20089;-95
2022/05/15 05:49:08;;;;;;;11.52;4.85;;;12.70;99.90;;;;;;5014119;28;20026;-95
2022/05/15 05:51:38;;;;;;;13.20;5.57;;;12.70;99.90;;;;;;5019799;28;20033;-95
2022/05/15 05:54:17;;;;;;;17.42;5.72;;;12.80;99.90;;;;;;5037312;28;20026;-96
2022/05/15 05:57:04;;;;;;;13.27;5.50;;;12.80;99.90;;;;;;5010560;28;20034;-95
2022/05/15 05:59:29;;;;;;;14.55;5.65;;;12.90;99.90;;;;;;5004844;28;20026;-96
2022/05/15 06:01:55;;;;;;;19.85;5.88;;;13.00;99.90;;;;;;5006202;28;20037;-95
2022/05/15 06:04:41;;;;;;;18.13;6.57;;;13.00;99.90;;;;;;5009750;28;20475;-95
2022/05/15 06:07:10;;;;;;;23.00;6.53;;;13.00;99.90;;;;;;5007090;28;20030;-95
2022/05/15 06:09:38;;;;;;;19.70;6.45;;;13.10;99.90;;;;;;5004408;28;20044;-94
2022/05/15 06:12:05;;;;;;;21.30;6.93;;;13.10;99.90;;;;;;5004628;28;20049;-95
2022/05/15 06:14:31;;;;;;;15.27;5.75;;;13.20;99.90;;;;;;5004457;28;20079;-95
2022/05/15 06:17:00;;;;;;;11.70;5.90;;;13.20;99.90;;;;;;5021415;28;20046;-94
2022/05/15 06:19:27;;;;;;;15.38;6.10;;;13.20;99.90;;;;;;5004118;28;20022;-95
2022/05/15 06:21:55;;;;;;;11.82;5.50;;;13.20;99.90;;;;;;5007951;28;20044;-95
2022/05/15 06:24:25;;;;;;;11.70;5.25;;;13.30;99.90;;;;;;5000378;28;20037;-95
2022/05/15 06:26:52;;;;;;;21.35;6.10;;;13.30;99.90;;;;;;5003282;28;20029;-93
2022/05/15 06:29:18;;;;;;;20.88;6.30;;;13.40;99.90;;;;;;5000672;28;20026;-94
2022/05/15 06:31:46;;;;;;;17.83;6.15;;;13.40;99.90;;;;;;5000448;28;20423;-94
2022/05/15 06:34:13;;;;;;;21.60;6.40;;;13.40;99.90;;;;;;5003398;28;20026;-94
2022/05/15 06:36:40;;;;;;;18.05;6.15;;;13.50;99.90;;;;;;5005755;28;20033;-95
2022/05/15 06:39:06;;;;;;;19.73;6.38;;;13.50;99.90;;;;;;5006405;28;20100;-95
2022/05/15 06:41:32;;;;;;;16.80;6.30;;;13.60;99.90;;;;;;5005965;28;20037;-94
2022/05/15 06:43:58;;;;;;;17.33;6.53;;;13.60;99.90;;;;;;5006842;28;20025;-93
2022/05/15 06:46:24;;;;;;;17.75;6.55;;;13.70;99.90;;;;;;4999716;28;20026;-92
2022/05/15 06:48:49;;;;;;;22.92;6.35;;;13.80;99.90;;;;;;4997553;28;20025;-93
2022/05/15 06:51:16;;;;;;;19.00;6.78;;;13.80;99.90;;;;;;4999611;28;20090;-94
2022/05/15 06:53:47;;;;;;;13.43;5.65;;;13.90;99.90;;;;;;5002972;28;20025;-95
2022/05/15 06:59:06;;;;;;;19.67;7.43;;;14.10;99.90;;;;;;5030000;28;20087;-94
2022/05/15 07:01:34;;;;;;;22.23;6.53;;;14.10;99.90;;;;;;5014179;28;20093;-95
2022/05/15 07:04:02;;;;;;;14.70;6.30;;;14.10;99.90;;;;;;5021983;28;20033;-95
2022/05/15 07:06:28;;;;;;;12.40;5.80;;;14.10;99.90;;;;;;5012366;28;20100;-94
2022/05/15 07:08:54;;;;;;;14.07;5.13;;;14.10;99.90;;;;;;5016067;28;20022;-94
2022/05/15 07:11:24;;;;;;;16.88;5.38;;;14.20;99.90;;;;;;5017709;28;20029;-94
2022/05/15 07:13:54;;;;;;;17.42;5.65;;;14.20;99.90;;;;;;5017796;28;20029;-95
2022/05/15 07:16:23;;;;;;;15.73;5.25;;;14.20;99.90;;;;;;5028741;28;20110;-96
2022/05/15 07:18:49;;;;;;;15.80;4.80;;;14.30;99.90;;;;;;5009818;28;20064;-94
2022/05/15 07:21:15;;;;;;;14.93;5.28;;;14.30;99.90;;;;;;5011930;28;20037;-94
2022/05/15 07:23:41;;;;;;;15.35;4.40;;;14.30;99.90;;;;;;5004676;28;20014;-94
2022/05/15 07:26:07;;;;;;;13.07;4.80;;;14.40;99.90;;;;;;5012042;28;20090;-95
2022/05/15 07:28:35;;;;;;;12.55;4.38;;;14.40;99.90;;;;;;5009430;28;20026;-95
2022/05/15 07:31:02;;;;;;;13.80;4.45;;;14.40;99.90;;;;;;5003341;28;20391;-94
2022/05/15 07:33:30;;;;;;;14.52;4.40;;;14.40;99.90;;;;;;4984787;28;20054;-94
2022/05/15 07:35:56;;;;;;;10.77;4.15;;;14.40;99.90;;;;;;5006468;28;20065;-93
2022/05/15 07:38:23;;;;;;;9.35;3.90;;;14.50;99.90;;;;;;5006204;28;20030;-94
2022/05/15 07:40:50;;;;;;;13.32;4.63;;;14.50;99.90;;;;;;5017898;28;20030;-93
2022/05/15 07:43:16;;;;;;;11.50;3.78;;;14.50;99.90;;;;;;4990624;28;20101;-94
2022/05/15 07:45:42;;;;;;;13.90;4.20;;;14.50;99.90;;;;;;4976744;28;20033;-95
2022/05/15 07:48:08;;;;;;;13.57;5.22;;;14.50;99.90;;;;;;5002145;28;20057;-96
2022/05/15 07:50:35;;;;;;;21.10;4.28;;;14.50;99.90;;;;;;5029341;28;20052;-95
2022/05/15 07:53:24;;;;;;;12.07;4.30;;;14.50;99.90;;;;;;5007801;28;20091;-96
2022/05/15 07:55:50;;;;;;;17.58;4.72;;;14.50;99.90;;;;;;4996263;28;20313;-91
2022/05/15 07:58:16;;;;;;;12.48;3.78;;;14.50;99.90;;;;;;5027051;28;20048;-94
2022/05/15 08:00:42;;;;;;;15.38;4.75;;;14.50;99.90;;;;;;5013854;28;20022;-92
2022/05/15 08:03:10;;;;;;;9.93;4.00;;;14.40;99.90;;;;;;5007324;28;20041;-93
2022/05/15 08:08:22;;;;;;;10.90;3.42;;;14.40;99.90;;;;;;5010815;28;20052;-93
2022/05/15 08:10:57;;;;;;;9.32;3.40;;;14.40;99.90;;;;;;5019471;28;20056;-96
2022/05/15 08:13:30;;;;;;;15.05;4.60;;;14.40;99.90;;;;;;5015339;28;20042;-94
2022/05/15 08:16:06;;;;;;;13.00;4.63;;;14.40;99.90;;;;;;5033212;28;20047;-96
2022/05/15 08:24:33;;;;;;;13.00;4.07;;;14.30;99.90;;;;;;5039864;28;20056;-94
2022/05/15 08:27:46;;;;;;;8.02;3.50;;;14.30;99.90;;;;;;5021677;28;20045;-95
2022/05/15 08:30:13;;;;;;;13.77;3.92;;;14.20;99.90;;;;;;5016143;28;20050;-95
2022/05/15 08:32:46;;;;;;;14.00;4.97;;;14.20;99.90;;;;;;5020139;28;20067;-94
2022/05/15 08:35:13;;;;;;;13.20;4.50;;;14.20;99.90;;;;;;5017845;28;20018;-95
2022/05/15 08:37:42;;;;;;;12.88;3.78;;;14.20;99.90;;;;;;5020942;28;20065;-95
2022/05/15 08:40:09;;;;;;;15.65;5.43;;;14.20;99.90;;;;;;5015509;28;20014;-96
2022/05/15 08:42:44;;;;;;;13.45;4.20;;;14.30;99.90;;;;;;5017833;28;20093;-94
2022/05/15 08:45:18;;;;;;;12.40;3.63;;;14.30;99.90;;;;;;5017596;28;20010;-93
2022/05/15 08:47:53;;;;;;;19.35;4.88;;;14.40;99.90;;;;;;5012325;28;20045;-95
2022/05/15 08:50:26;;;;;;;17.92;4.78;;;14.40;99.90;;;;;;5036030;28;20090;-96
2022/05/15 08:53:02;;;;;;;10.15;3.40;;;14.50;99.90;;;;;;5014277;28;20049;-94
2022/05/15 08:55:50;;;;;;;15.32;3.67;;;14.70;99.90;;;;;;5008960;28;20029;-94
2022/05/15 08:58:36;;;;;;;12.38;4.15;;;14.80;99.90;;;;;;5016418;28;20042;-96
2022/05/15 09:01:05;;;;;;;10.75;3.40;;;14.90;99.90;;;;;;5020615;28;20014;-93
2022/05/15 09:03:43;;;;;;;17.58;3.72;;;15.00;99.90;;;;;;5032137;28;20025;-95
2022/05/15 09:12:53;;;;;;;;;;;;;;;;;;;;;
2022/05/15 09:21:18;;;;;;;11.45;2.95;;;15.70;98.20;;;;;;5243213;23;20035;-95
2022/05/15 09:23:51;;;;;;;9.73;3.05;;;15.80;97.30;;;;;;5050307;23;20078;-95
2022/05/15 09:26:22;;;;;;;8.57;2.45;;;15.90;96.60;;;;;;5011595;28;20074;-94
2022/05/15 09:36:49;;;;;;;5.47;2.50;;;16.20;92.50;;;;;;1366892;23;20417;-91
2022/05/15 09:44:47;;;;;;;11.82;2.90;;;16.30;89.70;;;;;;4991901;28;20125;-95
2022/05/15 09:47:30;;;;;;;16.13;2.65;;;16.30;88.80;;;;;;4977320;28;20027;-93
2022/05/15 09:49:57;;;;;;;8.82;2.65;;;16.40;88.70;;;;;;5174285;23;20695;-94
2022/05/15 09:52:40;;;;;;;12.65;3.00;;;16.40;87.50;;;;;;4974712;28;20007;-94
2022/05/15 09:55:13;;;;;;;14.65;2.78;;;16.50;86.60;;;;;;4960442;29;20046;-95
2022/05/15 09:58:03;;;;;;;7.88;2.50;;;16.60;86.60;;;;;;5398961;23;20050;-95
2022/05/15 10:00:32;;;;;;;8.05;2.25;;;16.60;86.00;;;;;;5005123;28;20049;-95
2022/05/15 10:05:36;;;;;;;10.98;2.83;;;16.70;85.70;;;;;;5107098;23;20095;-94
2022/05/15 10:08:26;;;;;;;6.28;2.33;;;16.70;85.10;;;;;;4957717;29;20043;-91
2022/05/15 10:10:59;;;;;;;11.52;2.95;;;16.70;84.00;;;;;;4954935;29;20031;-93
2022/05/15 10:13:37;;;;;;;11.70;3.10;;;16.70;83.90;;;;;;4964056;29;20026;-93
2022/05/15 10:16:22;;;;;;;10.63;2.83;;;16.60;84.10;;;;;;4972984;29;20030;-94
2022/05/15 10:18:57;;;;;;;10.32;3.30;;;16.60;84.60;;;;;;4953721;29;20035;-93
2022/05/15 10:21:43;;;;;;;13.32;3.42;;;16.60;85.00;;;;;;4972700;29;20028;-94
2022/05/15 10:24:21;;;;;;;8.95;2.58;;;16.60;85.60;;;;;;4970339;29;20027;-93
2022/05/15 10:27:13;;;;;;;8.60;2.90;;;16.60;85.70;;;;;;4944331;29;20020;-95
2022/05/15 10:33:05;;;;;;;15.13;3.63;;;16.60;85.20;;;;;;4972991;29;20070;-96
2022/05/15 10:35:47;;;;;;;8.38;2.70;;;16.60;84.70;;;;;;4982748;28;20035;-95
2022/05/15 10:38:22;;;;;;;11.25;2.90;;;16.50;84.80;;;;;;4967351;28;20043;-93
2022/05/15 10:41:16;;;;;;;11.25;3.13;;;16.50;85.00;;;;;;4965297;29;20024;-93
2022/05/15 10:43:55;;;;;;;22.80;4.68;;;16.60;84.80;;;;;;4955599;29;20046;-94
2022/05/15 10:46:30;;;;;;;13.57;2.92;;;16.60;84.70;;;;;;4965375;28;20027;-93
2022/05/15 10:49:10;;;;;;;13.93;3.45;;;16.70;84.50;;;;;;4960112;29;20016;-93
2022/05/15 10:51:59;;;;;;;13.55;3.45;;;16.90;84.30;;;;;;4922007;29;20044;-94
2022/05/15 10:57:29;;;;;;;14.40;4.00;;;17.50;84.20;;;;;;4936145;29;20532;-94
2022/05/15 10:59:55;;;;;;;16.13;3.25;;;17.80;83.90;;;;;;4945750;29;20032;-93
2022/05/15 11:02:27;;;;;;;12.80;3.47;;;18.00;83.40;;;;;;4955601;29;20025;-94
2022/05/15 11:05:20;;;;;;;10.38;3.17;;;18.10;82.90;;;;;;4956401;28;20083;-95
2022/05/15 11:08:16;;;;;;;15.27;3.60;;;18.20;82.40;;;;;;4885368;29;20028;-94
2022/05/15 11:11:13;;;;;;;15.25;4.55;;;18.30;82.50;;;;;;4884742;29;20108;-95
2022/05/15 11:13:55;;;;;;;15.95;3.53;;;18.70;82.50;;;;;;4881352;29;20060;-95
2022/05/15 11:17:01;;;;;;;16.52;4.82;;;18.90;81.80;;;;;;4888844;29;20052;-95
2022/05/15 11:19:38;;;;;;;13.38;4.03;;;19.00;81.50;;;;;;4891894;29;20041;-95
2022/05/15 11:22:21;;;;;;;18.38;4.55;;;19.30;80.80;;;;;;4886103;29;20044;-93
2022/05/15 11:25:27;;;;;;;16.10;5.53;;;19.50;80.00;;;;;;4876209;29;20048;-95
2022/05/15 11:28:07;;;;;;;13.25;4.15;;;19.70;79.30;;;;;;4907215;29;20029;-93
2022/05/15 11:30:39;;;;;;;18.38;4.70;;;20.00;79.40;;;;;;4918282;29;20067;-94
2022/05/15 11:33:31;;;;;;;12.43;4.50;;;20.20;79.00;;;;;;4908950;29;20025;-93
2022/05/15 11:36:21;;;;;;;12.32;4.93;;;20.40;78.70;;;;;;4908356;29;20025;-91
2022/05/15 11:38:59;;;;;;;21.48;5.70;;;20.70;77.20;;;;;;4903459;29;20109;-93
2022/05/15 11:41:37;;;;;;;18.88;5.75;;;20.70;76.60;;;;;;4911348;29;20100;-94
2022/05/15 11:44:13;;;;;;;14.65;5.20;;;20.90;76.60;;;;;;4892986;29;20040;-93
2022/05/15 11:46:45;;;;;;;20.70;6.05;;;21.00;76.70;;;;;;4934566;29;20035;-93
2022/05/15 11:49:42;;;;;;;15.30;5.18;;;21.20;76.00;;;;;;4945247;28;20031;-93
2022/05/15 11:52:11;;;;;;;23.23;5.72;;;21.40;75.90;;;;;;4953987;29;20023;-93
2022/05/15 11:54:45;;;;;;;19.67;5.88;;;21.70;75.50;;;;;;4971407;28;20028;-93
2022/05/15 11:57:50;;;;;;;18.90;5.90;;;21.70;74.90;;;;;;4956269;28;20036;-94
2022/05/15 12:00:31;;;;;;;16.05;6.20;;;21.90;74.70;;;;;;4961970;28;20039;-94
2022/05/15 12:02:59;;;;;;;24.95;6.88;;;22.00;74.20;;;;;;4979503;28;20034;-93
2022/05/15 12:05:38;;;;;;;17.63;5.10;;;22.10;74.10;;;;;;4970857;28;20046;-93
2022/05/15 12:08:30;;;;;;;17.77;6.55;;;22.20;74.20;;;;;;4972762;28;20023;-92
2022/05/15 12:10:58;;;;;;;19.00;5.82;;;22.40;73.80;;;;;;4950506;29;20115;-94
2022/05/15 12:13:33;;;;;;;14.90;5.00;;;22.60;73.60;;;;;;4947648;29;20028;-94
2022/05/15 12:16:28;;;;;;;17.17;6.78;;;22.80;73.60;;;;;;4950456;29;20064;-95
2022/05/15 12:19:24;;;;;;;18.17;6.10;;;23.10;72.50;;;;;;4951783;29;20442;-94
2022/05/15 12:21:54;;;;;;;22.30;6.63;;;23.20;71.60;;;;;;4946506;29;20042;-94
2022/05/15 12:24:29;;;;;;;23.30;6.50;;;23.50;70.70;;;;;;4953986;29;20027;-93
2022/05/15 12:27:22;;;;;;;16.13;5.45;;;23.50;70.30;;;;;;4956023;29;20043;-93
2022/05/15 12:30:01;;;;;;;19.77;5.88;;;23.60;70.20;;;;;;4951827;29;20114;-93
2022/05/15 12:32:51;;;;;;;19.25;5.57;;;23.90;69.10;;;;;;4948289;29;20071;-91
2022/05/15 12:35:37;;;;;;;20.40;6.38;;;23.90;68.40;;;;;;4941186;29;20506;-92
2022/05/15 12:38:05;;;;;;;17.10;5.30;;;23.90;68.10;;;;;;4944797;29;20035;-92
2022/05/15 12:40:40;;;;;;;18.45;6.43;;;24.00;68.40;;;;;;4952388;28;20031;-91
2022/05/15 12:43:27;;;;;;;25.08;7.15;;;24.10;67.90;;;;;;4952089;28;20027;-91
2022/05/15 12:45:54;;;;;;;19.08;6.47;;;24.20;67.20;;;;;;4956236;28;20050;-92
2022/05/15 12:48:21;;;;;;;20.27;6.88;;;24.20;67.00;;;;;;4979893;28;20070;-91
2022/05/15 12:51:03;;;;;;;19.05;5.22;;;24.10;66.60;;;;;;4953971;29;20054;-91
2022/05/15 12:53:44;;;;;;;18.23;6.75;;;24.10;66.90;;;;;;4972302;28;20055;-92
2022/05/15 12:56:32;;;;;;;20.60;6.22;;;24.30;66.80;;;;;;4955475;29;20035;-91
2022/05/15 12:59:13;;;;;;;17.95;6.10;;;24.40;66.30;;;;;;4954455;29;20112;-91
2022/05/15 13:01:39;;;;;;;17.23;5.68;;;24.60;65.70;;;;;;4950718;29;20027;-92
2022/05/15 13:04:07;;;;;;;21.83;6.35;;;24.60;65.00;;;;;;4949225;29;20520;-89
2022/05/15 13:06:37;;;;;;;23.17;5.43;;;24.60;64.60;;;;;;4951530;29;20122;-90
2022/05/15 13:09:09;;;;;;;18.15;5.30;;;24.50;63.80;;;;;;4948908;29;20054;-89
2022/05/15 13:11:44;;;;;;;22.15;6.03;;;24.40;64.50;;;;;;4962065;28;20090;-93
2022/05/15 13:14:19;;;;;;;16.67;5.75;;;24.40;65.20;;;;;;4961529;29;20153;-91
2022/05/15 13:16:49;;;;;;;18.75;5.90;;;24.50;65.20;;;;;;4943765;29;20035;-90
2022/05/15 13:19:31;;;;;;;15.70;5.68;;;24.60;65.20;;;;;;4943414;29;20062;-90
2022/05/15 13:21:58;;;;;;;21.98;6.57;;;24.70;65.00;;;;;;4942944;29;20043;-91
2022/05/15 13:24:25;;;;;;;19.25;5.32;;;24.70;64.80;;;;;;4941695;29;20505;-93
2022/05/15 13:26:51;;;;;;;20.33;6.50;;;24.50;64.60;;;;;;4942493;29;20538;-91
2022/05/15 13:29:21;;;;;;;23.02;5.45;;;24.30;64.60;;;;;;4942431;29;20035;-90
2022/05/15 13:31:51;;;;;;;26.95;5.90;;;24.00;64.60;;;;;;4959730;28;20098;-89
2022/05/15 13:34:37;;;;;;;14.70;5.50;;;23.80;65.00;;;;;;4941705;29;20047;-90
2022/05/15 13:37:11;;;;;;;21.98;7.10;;;23.50;65.40;;;;;;4942107;29;20101;-91
2022/05/15 13:45:18;;;;;;;19.30;6.13;;;22.90;67.30;;;;;;4958634;28;20058;-92
2022/05/15 13:48:19;;;;;;;24.30;6.00;;;22.80;67.70;;;;;;4940479;29;20039;-90
2022/05/15 13:50:49;;;;;;;20.60;5.95;;;22.60;68.10;;;;;;4846453;29;20028;-91
2022/05/15 13:53:18;;;;;;;22.05;6.90;;;22.40;68.50;;;;;;4862307;29;20074;-91
2022/05/15 13:55:44;;;;;;;23.05;6.65;;;22.20;68.90;;;;;;4861807;29;20029;-90
2022/05/15 13:58:10;;;;;;;22.27;6.90;;;22.00;69.50;;;;;;4862000;29;20041;-91
2022/05/15 14:00:36;;;;;;;21.52;6.70;;;21.80;70.10;;;;;;4862392;29;20117;-91